Atkinson, Nebraska
Current Conditions -  °F | °C
As of 2:35 AM on Friday 21 Nov 2014 (Local Time) from KONL Reporting Station
Clear Clear  
Wind Chill: -12°   Ceiling: Unl
Heat Index: -5°   Visibility: 10mi
Dew Point: -7°   Wind: 13mph
Humidity: 88%   Direction: 190°S
Pressure: 30.06"   Gusts: NA
Location:  42.53°N, 98.98°W
Report Text: KONL 210835Z AUTO 19011KT 10SM CLR M05/M07 A3006 RMK AO2 T10531070
Loading
Personal Weather Stations






























Interactive Weather Map New forecast layout! Learn more

10-Day Weather Forecast

Advertisements
Track Severe Weather on mobile